sensor_id;sensor_type;location;lat;lon;timestamp;P1;durP1;ratioP1;P2;durP2;ratioP2
52104;SDS011;38103;42.776;23.112;2023-09-19T00:01:29;18.25;;;8.95;;
52104;SDS011;38103;42.776;23.112;2023-09-19T00:03:57;14.32;;;8.80;;
52104;SDS011;38103;42.776;23.112;2023-09-19T00:06:23;15.77;;;8.70;;
52104;SDS011;38103;42.776;23.112;2023-09-19T00:08:54;16.83;;;9.25;;
52104;SDS011;38103;42.776;23.112;2023-09-19T00:11:19;15.13;;;8.55;;
52104;SDS011;38103;42.776;23.112;2023-09-19T00:13:47;13.85;;;8.68;;
52104;SDS011;38103;42.776;23.112;2023-09-19T00:16:14;16.50;;;8.48;;
52104;SDS011;38103;42.776;23.112;2023-09-19T00:18:40;13.95;;;8.60;;
52104;SDS011;38103;42.776;23.112;2023-09-19T00:21:06;14.88;;;8.93;;
52104;SDS011;38103;42.776;23.112;2023-09-19T00:23:32;14.43;;;8.68;;
52104;SDS011;38103;42.776;23.112;2023-09-19T00:25:58;17.33;;;8.75;;
52104;SDS011;38103;42.776;23.112;2023-09-19T00:28:24;17.02;;;9.07;;
52104;SDS011;38103;42.776;23.112;2023-09-19T00:30:50;16.00;;;9.48;;
52104;SDS011;38103;42.776;23.112;2023-09-19T00:33:15;14.57;;;9.23;;
52104;SDS011;38103;42.776;23.112;2023-09-19T00:35:46;15.98;;;9.32;;
52104;SDS011;38103;42.776;23.112;2023-09-19T00:38:15;17.02;;;9.52;;
52104;SDS011;38103;42.776;23.112;2023-09-19T00:40:45;16.40;;;9.07;;
52104;SDS011;38103;42.776;23.112;2023-09-19T00:43:11;16.13;;;9.43;;
52104;SDS011;38103;42.776;23.112;2023-09-19T00:45:37;16.08;;;9.73;;
52104;SDS011;38103;42.776;23.112;2023-09-19T00:48:03;14.85;;;8.73;;
52104;SDS011;38103;42.776;23.112;2023-09-19T00:50:31;18.25;;;9.20;;
52104;SDS011;38103;42.776;23.112;2023-09-19T00:52:57;16.75;;;9.10;;
52104;SDS011;38103;42.776;23.112;2023-09-19T00:55:24;13.93;;;8.55;;
52104;SDS011;38103;42.776;23.112;2023-09-19T00:57:50;16.50;;;9.15;;
52104;SDS011;38103;42.776;23.112;2023-09-19T01:00:15;16.45;;;9.32;;
52104;SDS011;38103;42.776;23.112;2023-09-19T01:02:44;18.05;;;8.88;;
52104;SDS011;38103;42.776;23.112;2023-09-19T01:05:09;15.48;;;9.73;;
52104;SDS011;38103;42.776;23.112;2023-09-19T01:07:36;15.45;;;9.27;;
52104;SDS011;38103;42.776;23.112;2023-09-19T01:10:05;16.38;;;9.35;;
52104;SDS011;38103;42.776;23.112;2023-09-19T01:15:10;15.85;;;9.50;;
52104;SDS011;38103;42.776;23.112;2023-09-19T01:17:46;16.70;;;9.65;;
52104;SDS011;38103;42.776;23.112;2023-09-19T01:25:19;18.73;;;10.20;;
52104;SDS011;38103;42.776;23.112;2023-09-19T01:28:14;16.55;;;9.20;;
52104;SDS011;38103;42.776;23.112;2023-09-19T01:30:46;18.85;;;10.13;;
52104;SDS011;38103;42.776;23.112;2023-09-19T01:33:19;17.90;;;9.73;;
52104;SDS011;38103;42.776;23.112;2023-09-19T01:35:45;17.23;;;9.68;;
52104;SDS011;38103;42.776;23.112;2023-09-19T01:38:10;16.23;;;10.82;;
52104;SDS011;38103;42.776;23.112;2023-09-19T01:40:43;16.02;;;10.55;;
52104;SDS011;38103;42.776;23.112;2023-09-19T01:45:57;15.38;;;10.65;;
52104;SDS011;38103;42.776;23.112;2023-09-19T01:51:13;21.27;;;10.93;;
52104;SDS011;38103;42.776;23.112;2023-09-19T01:53:50;18.55;;;10.90;;
52104;SDS011;38103;42.776;23.112;2023-09-19T01:56:25;20.08;;;11.20;;
52104;SDS011;38103;42.776;23.112;2023-09-19T01:58:59;17.10;;;10.45;;
52104;SDS011;38103;42.776;23.112;2023-09-19T02:01:30;17.58;;;10.68;;
52104;SDS011;38103;42.776;23.112;2023-09-19T02:03:56;14.63;;;10.10;;
52104;SDS011;38103;42.776;23.112;2023-09-19T02:06:23;15.13;;;10.32;;
52104;SDS011;38103;42.776;23.112;2023-09-19T02:08:50;20.48;;;11.05;;
52104;SDS011;38103;42.776;23.112;2023-09-19T02:11:15;18.55;;;10.98;;
52104;SDS011;38103;42.776;23.112;2023-09-19T02:13:41;17.00;;;10.60;;
52104;SDS011;38103;42.776;23.112;2023-09-19T02:16:07;16.40;;;10.98;;
52104;SDS011;38103;42.776;23.112;2023-09-19T02:18:34;16.05;;;10.95;;
52104;SDS011;38103;42.776;23.112;2023-09-19T02:21:02;18.90;;;11.93;;
52104;SDS011;38103;42.776;23.112;2023-09-19T02:23:29;17.25;;;11.50;;
52104;SDS011;38103;42.776;23.112;2023-09-19T02:25:55;19.60;;;12.45;;
52104;SDS011;38103;42.776;23.112;2023-09-19T02:28:25;17.63;;;11.25;;
52104;SDS011;38103;42.776;23.112;2023-09-19T02:30:55;21.58;;;11.48;;
52104;SDS011;38103;42.776;23.112;2023-09-19T02:33:21;18.27;;;11.95;;
52104;SDS011;38103;42.776;23.112;2023-09-19T02:35:47;19.83;;;12.25;;
52104;SDS011;38103;42.776;23.112;2023-09-19T02:38:12;17.58;;;12.38;;
52104;SDS011;38103;42.776;23.112;2023-09-19T02:40:38;18.88;;;13.38;;
52104;SDS011;38103;42.776;23.112;2023-09-19T02:43:03;17.42;;;11.15;;
52104;SDS011;38103;42.776;23.112;2023-09-19T02:45:29;19.30;;;12.23;;
52104;SDS011;38103;42.776;23.112;2023-09-19T02:47:55;19.05;;;11.70;;
52104;SDS011;38103;42.776;23.112;2023-09-19T02:50:21;20.10;;;11.18;;
52104;SDS011;38103;42.776;23.112;2023-09-19T02:52:46;18.42;;;11.43;;
52104;SDS011;38103;42.776;23.112;2023-09-19T02:55:13;17.73;;;11.50;;
52104;SDS011;38103;42.776;23.112;2023-09-19T02:57:49;20.10;;;11.43;;
52104;SDS011;38103;42.776;23.112;2023-09-19T03:00:16;18.50;;;11.68;;
52104;SDS011;38103;42.776;23.112;2023-09-19T03:02:45;20.17;;;11.77;;
52104;SDS011;38103;42.776;23.112;2023-09-19T03:05:11;19.67;;;12.90;;
52104;SDS011;38103;42.776;23.112;2023-09-19T03:07:37;22.63;;;13.05;;
52104;SDS011;38103;42.776;23.112;2023-09-19T03:10:03;18.48;;;12.60;;
52104;SDS011;38103;42.776;23.112;2023-09-19T03:12:30;24.30;;;13.07;;
52104;SDS011;38103;42.776;23.112;2023-09-19T03:14:56;19.67;;;12.20;;
52104;SDS011;38103;42.776;23.112;2023-09-19T03:17:22;18.00;;;11.75;;
52104;SDS011;38103;42.776;23.112;2023-09-19T03:19:47;17.33;;;12.07;;
52104;SDS011;38103;42.776;23.112;2023-09-19T03:22:13;22.77;;;13.35;;
52104;SDS011;38103;42.776;23.112;2023-09-19T03:24:39;18.63;;;12.85;;
52104;SDS011;38103;42.776;23.112;2023-09-19T03:27:05;20.42;;;13.77;;
52104;SDS011;38103;42.776;23.112;2023-09-19T03:29:30;21.38;;;13.55;;
52104;SDS011;38103;42.776;23.112;2023-09-19T03:31:55;18.30;;;12.40;;
52104;SDS011;38103;42.776;23.112;2023-09-19T03:34:21;20.52;;;12.48;;
52104;SDS011;38103;42.776;23.112;2023-09-19T03:36:46;18.10;;;13.30;;
52104;SDS011;38103;42.776;23.112;2023-09-19T03:39:12;20.42;;;13.73;;
52104;SDS011;38103;42.776;23.112;2023-09-19T03:41:37;20.23;;;14.23;;
52104;SDS011;38103;42.776;23.112;2023-09-19T03:44:03;18.95;;;12.95;;
52104;SDS011;38103;42.776;23.112;2023-09-19T03:46:28;19.50;;;12.90;;
52104;SDS011;38103;42.776;23.112;2023-09-19T03:48:55;19.55;;;12.25;;
52104;SDS011;38103;42.776;23.112;2023-09-19T03:51:20;19.58;;;12.57;;
52104;SDS011;38103;42.776;23.112;2023-09-19T03:53:46;19.85;;;13.18;;
52104;SDS011;38103;42.776;23.112;2023-09-19T03:56:14;21.60;;;13.95;;
52104;SDS011;38103;42.776;23.112;2023-09-19T03:58:39;20.58;;;13.20;;
52104;SDS011;38103;42.776;23.112;2023-09-19T04:01:05;19.98;;;13.27;;
52104;SDS011;38103;42.776;23.112;2023-09-19T04:03:32;21.88;;;14.70;;
52104;SDS011;38103;42.776;23.112;2023-09-19T04:06:12;21.30;;;13.02;;
52104;SDS011;38103;42.776;23.112;2023-09-19T04:08:38;19.95;;;13.00;;
52104;SDS011;38103;42.776;23.112;2023-09-19T04:11:04;18.35;;;13.20;;
52104;SDS011;38103;42.776;23.112;2023-09-19T04:13:29;20.95;;;13.35;;
52104;SDS011;38103;42.776;23.112;2023-09-19T04:15:54;21.30;;;14.30;;
52104;SDS011;38103;42.776;23.112;2023-09-19T04:18:20;22.05;;;15.20;;
52104;SDS011;38103;42.776;23.112;2023-09-19T04:20:49;22.38;;;15.63;;
52104;SDS011;38103;42.776;23.112;2023-09-19T04:23:15;21.42;;;16.48;;
52104;SDS011;38103;42.776;23.112;2023-09-19T04:25:41;23.38;;;16.35;;
52104;SDS011;38103;42.776;23.112;2023-09-19T04:28:07;21.98;;;15.95;;
52104;SDS011;38103;42.776;23.112;2023-09-19T04:30:35;26.38;;;15.85;;
52104;SDS011;38103;42.776;23.112;2023-09-19T04:33:00;24.63;;;16.08;;
52104;SDS011;38103;42.776;23.112;2023-09-19T04:35:26;24.08;;;16.85;;
52104;SDS011;38103;42.776;23.112;2023-09-19T04:37:55;24.23;;;16.88;;
52104;SDS011;38103;42.776;23.112;2023-09-19T04:40:21;22.73;;;16.60;;
52104;SDS011;38103;42.776;23.112;2023-09-19T04:42:54;34.78;;;16.83;;
52104;SDS011;38103;42.776;23.112;2023-09-19T04:45:23;23.65;;;16.23;;
52104;SDS011;38103;42.776;23.112;2023-09-19T04:47:48;23.17;;;16.67;;
52104;SDS011;38103;42.776;23.112;2023-09-19T04:50:14;21.60;;;15.35;;
52104;SDS011;38103;42.776;23.112;2023-09-19T04:52:40;24.20;;;15.35;;
52104;SDS011;38103;42.776;23.112;2023-09-19T04:55:07;22.00;;;15.30;;
52104;SDS011;38103;42.776;23.112;2023-09-19T04:57:41;18.95;;;13.55;;
52104;SDS011;38103;42.776;23.112;2023-09-19T05:00:07;18.67;;;12.15;;
52104;SDS011;38103;42.776;23.112;2023-09-19T05:02:37;18.33;;;11.70;;
52104;SDS011;38103;42.776;23.112;2023-09-19T05:05:02;19.20;;;12.23;;
52104;SDS011;38103;42.776;23.112;2023-09-19T05:07:29;20.25;;;12.43;;
52104;SDS011;38103;42.776;23.112;2023-09-19T05:09:55;18.45;;;12.35;;
52104;SDS011;38103;42.776;23.112;2023-09-19T05:12:20;17.95;;;11.68;;
52104;SDS011;38103;42.776;23.112;2023-09-19T05:14:46;18.95;;;12.52;;
52104;SDS011;38103;42.776;23.112;2023-09-19T05:17:11;18.33;;;12.02;;
52104;SDS011;38103;42.776;23.112;2023-09-19T05:19:36;21.25;;;13.52;;
52104;SDS011;38103;42.776;23.112;2023-09-19T05:22:03;21.42;;;14.00;;
52104;SDS011;38103;42.776;23.112;2023-09-19T05:24:29;22.17;;;13.85;;
52104;SDS011;38103;42.776;23.112;2023-09-19T05:26:55;21.60;;;14.15;;
52104;SDS011;38103;42.776;23.112;2023-09-19T05:29:22;19.83;;;12.60;;
52104;SDS011;38103;42.776;23.112;2023-09-19T05:31:47;20.50;;;13.10;;
52104;SDS011;38103;42.776;23.112;2023-09-19T05:34:12;19.50;;;13.13;;
52104;SDS011;38103;42.776;23.112;2023-09-19T05:36:38;22.15;;;14.02;;
52104;SDS011;38103;42.776;23.112;2023-09-19T05:39:04;21.15;;;14.23;;
52104;SDS011;38103;42.776;23.112;2023-09-19T05:41:33;18.33;;;13.50;;
52104;SDS011;38103;42.776;23.112;2023-09-19T05:43:58;25.00;;;14.65;;
52104;SDS011;38103;42.776;23.112;2023-09-19T05:46:24;21.60;;;13.43;;
52104;SDS011;38103;42.776;23.112;2023-09-19T05:48:55;20.98;;;12.63;;
52104;SDS011;38103;42.776;23.112;2023-09-19T05:51:23;20.42;;;12.90;;
52104;SDS011;38103;42.776;23.112;2023-09-19T05:53:49;20.13;;;12.75;;
52104;SDS011;38103;42.776;23.112;2023-09-19T05:56:15;21.17;;;13.65;;
52104;SDS011;38103;42.776;23.112;2023-09-19T05:58:40;20.42;;;12.25;;
52104;SDS011;38103;42.776;23.112;2023-09-19T06:01:09;17.95;;;11.40;;
52104;SDS011;38103;42.776;23.112;2023-09-19T06:03:35;19.50;;;10.57;;
52104;SDS011;38103;42.776;23.112;2023-09-19T06:06:03;18.65;;;10.43;;
52104;SDS011;38103;42.776;23.112;2023-09-19T06:08:31;18.70;;;11.02;;
52104;SDS011;38103;42.776;23.112;2023-09-19T06:10:57;16.38;;;9.85;;
52104;SDS011;38103;42.776;23.112;2023-09-19T06:13:22;16.00;;;10.27;;
52104;SDS011;38103;42.776;23.112;2023-09-19T06:15:50;16.08;;;10.07;;
52104;SDS011;38103;42.776;23.112;2023-09-19T06:18:17;17.63;;;10.02;;
52104;SDS011;38103;42.776;23.112;2023-09-19T06:20:48;17.67;;;9.68;;
52104;SDS011;38103;42.776;23.112;2023-09-19T06:23:16;19.50;;;10.18;;
52104;SDS011;38103;42.776;23.112;2023-09-19T06:25:42;20.33;;;10.60;;
52104;SDS011;38103;42.776;23.112;2023-09-19T06:28:08;18.45;;;10.32;;
52104;SDS011;38103;42.776;23.112;2023-09-19T06:30:37;19.08;;;9.95;;
52104;SDS011;38103;42.776;23.112;2023-09-19T06:33:05;20.17;;;10.27;;
52104;SDS011;38103;42.776;23.112;2023-09-19T06:35:32;21.17;;;9.52;;
52104;SDS011;38103;42.776;23.112;2023-09-19T06:37:58;18.05;;;9.88;;
52104;SDS011;38103;42.776;23.112;2023-09-19T06:40:28;19.05;;;11.68;;
52104;SDS011;38103;42.776;23.112;2023-09-19T06:42:56;18.52;;;9.25;;
52104;SDS011;38103;42.776;23.112;2023-09-19T06:45:21;17.90;;;10.23;;
52104;SDS011;38103;42.776;23.112;2023-09-19T06:47:48;19.73;;;10.15;;
52104;SDS011;38103;42.776;23.112;2023-09-19T06:50:20;18.25;;;9.50;;
52104;SDS011;38103;42.776;23.112;2023-09-19T06:52:48;17.20;;;10.15;;
52104;SDS011;38103;42.776;23.112;2023-09-19T06:55:15;17.42;;;9.77;;
52104;SDS011;38103;42.776;23.112;2023-09-19T06:57:41;21.13;;;10.50;;
52104;SDS011;38103;42.776;23.112;2023-09-19T07:00:09;15.90;;;9.75;;
52104;SDS011;38103;42.776;23.112;2023-09-19T07:03:02;19.33;;;10.18;;
52104;SDS011;38103;42.776;23.112;2023-09-19T07:05:33;18.85;;;10.73;;
52104;SDS011;38103;42.776;23.112;2023-09-19T07:08:02;22.42;;;10.65;;
52104;SDS011;38103;42.776;23.112;2023-09-19T07:10:28;21.90;;;11.45;;
52104;SDS011;38103;42.776;23.112;2023-09-19T07:12:55;20.20;;;9.70;;
52104;SDS011;38103;42.776;23.112;2023-09-19T07:15:24;21.70;;;9.98;;
52104;SDS011;38103;42.776;23.112;2023-09-19T15:16:24;13.80;;;7.05;;
52104;SDS011;38103;42.776;23.112;2023-09-19T15:18:49;14.50;;;7.05;;
52104;SDS011;38103;42.776;23.112;2023-09-19T15:21:17;17.10;;;7.40;;
52104;SDS011;38103;42.776;23.112;2023-09-19T15:23:42;12.82;;;6.68;;
52104;SDS011;38103;42.776;23.112;2023-09-19T15:26:09;15.85;;;7.35;;
52104;SDS011;38103;42.776;23.112;2023-09-19T15:28:38;16.75;;;6.78;;
52104;SDS011;38103;42.776;23.112;2023-09-19T15:31:08;19.23;;;7.20;;
52104;SDS011;38103;42.776;23.112;2023-09-19T15:33:35;21.50;;;7.90;;
52104;SDS011;38103;42.776;23.112;2023-09-19T15:38:28;19.08;;;7.13;;
52104;SDS011;38103;42.776;23.112;2023-09-19T15:40:53;15.82;;;7.20;;
52104;SDS011;38103;42.776;23.112;2023-09-19T15:43:19;16.70;;;7.70;;
52104;SDS011;38103;42.776;23.112;2023-09-19T15:45:46;16.08;;;7.55;;
52104;SDS011;38103;42.776;23.112;2023-09-19T15:48:13;14.80;;;7.28;;
52104;SDS011;38103;42.776;23.112;2023-09-19T15:50:38;17.58;;;7.75;;
52104;SDS011;38103;42.776;23.112;2023-09-19T15:53:07;16.55;;;7.57;;
52104;SDS011;38103;42.776;23.112;2023-09-19T15:55:35;15.48;;;7.50;;
52104;SDS011;38103;42.776;23.112;2023-09-19T15:58:04;14.23;;;7.22;;
52104;SDS011;38103;42.776;23.112;2023-09-19T16:00:32;14.15;;;6.95;;
52104;SDS011;38103;42.776;23.112;2023-09-19T16:03:01;16.67;;;8.15;;
52104;SDS011;38103;42.776;23.112;2023-09-19T16:05:27;16.05;;;7.63;;
52104;SDS011;38103;42.776;23.112;2023-09-19T16:07:53;18.55;;;7.90;;
52104;SDS011;38103;42.776;23.112;2023-09-19T16:10:18;17.23;;;8.48;;
52104;SDS011;38103;42.776;23.112;2023-09-19T16:12:44;18.00;;;8.65;;
52104;SDS011;38103;42.776;23.112;2023-09-19T16:15:09;16.17;;;7.65;;
52104;SDS011;38103;42.776;23.112;2023-09-19T16:17:40;16.17;;;8.20;;
52104;SDS011;38103;42.776;23.112;2023-09-19T16:20:06;21.38;;;8.38;;
52104;SDS011;38103;42.776;23.112;2023-09-19T16:22:33;17.88;;;7.90;;
52104;SDS011;38103;42.776;23.112;2023-09-19T16:24:58;18.20;;;8.05;;
52104;SDS011;38103;42.776;23.112;2023-09-19T16:27:24;15.35;;;7.75;;
52104;SDS011;38103;42.776;23.112;2023-09-19T16:29:49;20.73;;;8.60;;
52104;SDS011;38103;42.776;23.112;2023-09-19T16:32:15;15.93;;;7.35;;
52104;SDS011;38103;42.776;23.112;2023-09-19T16:34:40;18.75;;;8.27;;
52104;SDS011;38103;42.776;23.112;2023-09-19T16:37:06;13.82;;;7.47;;
52104;SDS011;38103;42.776;23.112;2023-09-19T16:39:31;15.57;;;7.85;;
52104;SDS011;38103;42.776;23.112;2023-09-19T16:41:57;18.25;;;8.18;;
52104;SDS011;38103;42.776;23.112;2023-09-19T16:44:22;14.00;;;7.65;;
52104;SDS011;38103;42.776;23.112;2023-09-19T16:46:48;15.07;;;7.65;;
52104;SDS011;38103;42.776;23.112;2023-09-19T16:49:13;19.20;;;7.82;;
52104;SDS011;38103;42.776;23.112;2023-09-19T16:51:39;18.73;;;8.57;;
52104;SDS011;38103;42.776;23.112;2023-09-19T16:54:06;14.27;;;8.02;;
52104;SDS011;38103;42.776;23.112;2023-09-19T16:56:32;17.42;;;8.35;;
52104;SDS011;38103;42.776;23.112;2023-09-19T16:59:01;17.00;;;8.23;;
52104;SDS011;38103;42.776;23.112;2023-09-19T17:01:30;18.95;;;7.97;;
52104;SDS011;38103;42.776;23.112;2023-09-19T17:03:57;14.90;;;8.20;;
52104;SDS011;38103;42.776;23.112;2023-09-19T17:06:23;15.77;;;8.30;;
52104;SDS011;38103;42.776;23.112;2023-09-19T17:08:50;15.68;;;7.80;;
52104;SDS011;38103;42.776;23.112;2023-09-19T17:11:16;17.00;;;8.07;;
52104;SDS011;38103;42.776;23.112;2023-09-19T17:13:42;16.13;;;7.82;;
52104;SDS011;38103;42.776;23.112;2023-09-19T17:16:15;17.58;;;8.50;;
52104;SDS011;38103;42.776;23.112;2023-09-19T17:18:54;24.33;;;8.65;;
52104;SDS011;38103;42.776;23.112;2023-09-19T17:21:21;16.23;;;8.20;;
52104;SDS011;38103;42.776;23.112;2023-09-19T17:23:46;18.23;;;8.25;;
52104;SDS011;38103;42.776;23.112;2023-09-19T17:26:13;20.83;;;9.07;;
52104;SDS011;38103;42.776;23.112;2023-09-19T17:28:39;18.25;;;8.93;;
52104;SDS011;38103;42.776;23.112;2023-09-19T17:31:10;15.98;;;8.38;;
52104;SDS011;38103;42.776;23.112;2023-09-19T17:33:37;18.05;;;8.40;;
52104;SDS011;38103;42.776;23.112;2023-09-19T17:36:06;16.27;;;7.75;;
52104;SDS011;38103;42.776;23.112;2023-09-19T17:38:33;14.48;;;7.70;;
52104;SDS011;38103;42.776;23.112;2023-09-19T17:41:04;17.13;;;7.97;;
52104;SDS011;38103;42.776;23.112;2023-09-19T17:43:33;14.90;;;7.57;;
52104;SDS011;38103;42.776;23.112;2023-09-19T17:46:12;15.88;;;7.93;;
52104;SDS011;38103;42.776;23.112;2023-09-19T17:48:40;17.85;;;7.97;;
52104;SDS011;38103;42.776;23.112;2023-09-19T17:51:09;14.43;;;7.47;;
52104;SDS011;38103;42.776;23.112;2023-09-19T17:53:35;18.40;;;8.07;;
52104;SDS011;38103;42.776;23.112;2023-09-19T17:56:02;18.13;;;7.35;;
52104;SDS011;38103;42.776;23.112;2023-09-19T17:58:29;20.45;;;7.53;;
52104;SDS011;38103;42.776;23.112;2023-09-19T18:00:54;15.57;;;7.85;;
52104;SDS011;38103;42.776;23.112;2023-09-19T18:03:21;14.95;;;7.45;;
52104;SDS011;38103;42.776;23.112;2023-09-19T18:05:53;14.52;;;7.85;;
52104;SDS011;38103;42.776;23.112;2023-09-19T18:08:18;14.13;;;7.82;;
52104;SDS011;38103;42.776;23.112;2023-09-19T18:10:48;15.82;;;8.05;;
52104;SDS011;38103;42.776;23.112;2023-09-19T18:13:13;13.45;;;7.30;;
52104;SDS011;38103;42.776;23.112;2023-09-19T18:15:39;17.75;;;7.60;;
52104;SDS011;38103;42.776;23.112;2023-09-19T18:18:04;15.05;;;7.80;;
52104;SDS011;38103;42.776;23.112;2023-09-19T18:20:35;13.65;;;7.75;;
52104;SDS011;38103;42.776;23.112;2023-09-19T18:23:02;13.80;;;7.13;;
52104;SDS011;38103;42.776;23.112;2023-09-19T18:25:28;13.55;;;7.47;;
52104;SDS011;38103;42.776;23.112;2023-09-19T18:27:53;16.38;;;7.80;;
52104;SDS011;38103;42.776;23.112;2023-09-19T18:30:19;13.82;;;7.60;;
52104;SDS011;38103;42.776;23.112;2023-09-19T18:32:45;15.55;;;7.53;;
52104;SDS011;38103;42.776;23.112;2023-09-19T18:35:12;15.20;;;7.50;;
52104;SDS011;38103;42.776;23.112;2023-09-19T18:37:39;16.15;;;7.18;;
52104;SDS011;38103;42.776;23.112;2023-09-19T18:40:06;16.48;;;7.55;;
52104;SDS011;38103;42.776;23.112;2023-09-19T18:42:36;16.65;;;7.82;;
52104;SDS011;38103;42.776;23.112;2023-09-19T18:45:01;14.38;;;7.70;;
52104;SDS011;38103;42.776;23.112;2023-09-19T18:47:27;15.20;;;7.68;;
52104;SDS011;38103;42.776;23.112;2023-09-19T18:49:53;13.60;;;7.97;;
52104;SDS011;38103;42.776;23.112;2023-09-19T18:52:19;16.55;;;7.88;;
52104;SDS011;38103;42.776;23.112;2023-09-19T18:54:44;15.40;;;7.93;;
52104;SDS011;38103;42.776;23.112;2023-09-19T18:57:10;14.95;;;7.97;;
52104;SDS011;38103;42.776;23.112;2023-09-19T18:59:37;16.98;;;8.25;;
52104;SDS011;38103;42.776;23.112;2023-09-19T19:02:03;15.15;;;7.22;;
52104;SDS011;38103;42.776;23.112;2023-09-19T19:04:28;15.32;;;8.27;;
52104;SDS011;38103;42.776;23.112;2023-09-19T19:06:54;16.23;;;8.07;;
52104;SDS011;38103;42.776;23.112;2023-09-19T19:09:20;14.70;;;7.93;;
52104;SDS011;38103;42.776;23.112;2023-09-19T19:11:45;21.90;;;8.27;;
52104;SDS011;38103;42.776;23.112;2023-09-19T19:14:11;14.77;;;7.35;;
52104;SDS011;38103;42.776;23.112;2023-09-19T19:16:37;17.15;;;7.45;;
52104;SDS011;38103;42.776;23.112;2023-09-19T19:19:03;12.88;;;7.03;;
52104;SDS011;38103;42.776;23.112;2023-09-19T19:21:35;18.40;;;7.85;;
52104;SDS011;38103;42.776;23.112;2023-09-19T19:24:01;18.98;;;7.72;;
52104;SDS011;38103;42.776;23.112;2023-09-19T19:26:27;18.55;;;8.23;;
52104;SDS011;38103;42.776;23.112;2023-09-19T19:28:53;13.68;;;8.00;;
52104;SDS011;38103;42.776;23.112;2023-09-19T19:31:18;16.70;;;8.30;;
52104;SDS011;38103;42.776;23.112;2023-09-19T19:33:44;14.07;;;7.50;;
52104;SDS011;38103;42.776;23.112;2023-09-19T19:36:10;12.70;;;7.97;;
52104;SDS011;38103;42.776;23.112;2023-09-19T19:38:36;19.42;;;9.25;;
52104;SDS011;38103;42.776;23.112;2023-09-19T19:41:03;25.13;;;10.15;;
52104;SDS011;38103;42.776;23.112;2023-09-19T19:43:29;20.98;;;9.65;;
52104;SDS011;38103;42.776;23.112;2023-09-19T19:45:55;20.08;;;10.10;;
52104;SDS011;38103;42.776;23.112;2023-09-19T19:48:22;15.43;;;9.77;;
52104;SDS011;38103;42.776;23.112;2023-09-19T19:50:47;20.17;;;10.63;;
52104;SDS011;38103;42.776;23.112;2023-09-19T19:53:13;20.63;;;10.85;;
52104;SDS011;38103;42.776;23.112;2023-09-19T19:55:39;19.73;;;11.18;;
52104;SDS011;38103;42.776;23.112;2023-09-19T19:58:05;23.35;;;12.05;;
52104;SDS011;38103;42.776;23.112;2023-09-19T20:00:31;20.52;;;11.93;;
52104;SDS011;38103;42.776;23.112;2023-09-19T20:02:58;18.98;;;11.88;;
52104;SDS011;38103;42.776;23.112;2023-09-19T20:05:24;20.65;;;11.73;;
52104;SDS011;38103;42.776;23.112;2023-09-19T20:07:51;17.48;;;11.38;;
52104;SDS011;38103;42.776;23.112;2023-09-19T20:10:17;18.00;;;10.82;;
52104;SDS011;38103;42.776;23.112;2023-09-19T20:12:44;21.35;;;10.68;;
52104;SDS011;38103;42.776;23.112;2023-09-19T20:15:10;19.27;;;10.93;;
52104;SDS011;38103;42.776;23.112;2023-09-19T20:17:36;19.58;;;10.80;;
52104;SDS011;38103;42.776;23.112;2023-09-19T20:20:03;18.58;;;10.10;;
52104;SDS011;38103;42.776;23.112;2023-09-19T20:22:39;17.80;;;8.35;;
52104;SDS011;38103;42.776;23.112;2023-09-19T20:25:06;17.88;;;9.05;;
52104;SDS011;38103;42.776;23.112;2023-09-19T20:27:33;21.42;;;8.93;;
52104;SDS011;38103;42.776;23.112;2023-09-19T20:29:58;19.05;;;8.38;;
52104;SDS011;38103;42.776;23.112;2023-09-19T20:44:06;19.10;;;7.82;;
52104;SDS011;38103;42.776;23.112;2023-09-19T20:46:32;13.90;;;6.90;;
52104;SDS011;38103;42.776;23.112;2023-09-19T20:49:00;15.70;;;6.70;;
52104;SDS011;38103;42.776;23.112;2023-09-19T20:51:26;16.92;;;6.28;;
52104;SDS011;38103;42.776;23.112;2023-09-19T20:53:59;16.92;;;6.38;;
52104;SDS011;38103;42.776;23.112;2023-09-19T20:56:25;15.02;;;6.32;;
52104;SDS011;38103;42.776;23.112;2023-09-19T20:58:50;14.23;;;6.95;;
52104;SDS011;38103;42.776;23.112;2023-09-19T21:01:15;17.45;;;6.63;;
52104;SDS011;38103;42.776;23.112;2023-09-19T21:03:42;15.23;;;6.43;;
52104;SDS011;38103;42.776;23.112;2023-09-19T21:06:11;15.30;;;6.20;;
52104;SDS011;38103;42.776;23.112;2023-09-19T21:08:39;17.73;;;6.43;;
52104;SDS011;38103;42.776;23.112;2023-09-19T21:11:13;15.48;;;6.45;;
52104;SDS011;38103;42.776;23.112;2023-09-19T21:13:40;15.95;;;6.50;;
52104;SDS011;38103;42.776;23.112;2023-09-19T21:16:06;16.27;;;6.60;;
52104;SDS011;38103;42.776;23.112;2023-09-19T21:18:33;15.68;;;6.18;;
52104;SDS011;38103;42.776;23.112;2023-09-19T21:21:02;13.90;;;7.05;;
52104;SDS011;38103;42.776;23.112;2023-09-19T21:23:28;14.50;;;6.88;;
52104;SDS011;38103;42.776;23.112;2023-09-19T21:25:56;17.15;;;7.28;;
52104;SDS011;38103;42.776;23.112;2023-09-19T21:28:21;17.55;;;7.30;;
52104;SDS011;38103;42.776;23.112;2023-09-19T21:30:59;16.80;;;7.55;;
52104;SDS011;38103;42.776;23.112;2023-09-19T21:33:29;14.95;;;8.27;;
52104;SDS011;38103;42.776;23.112;2023-09-19T21:35:55;18.73;;;8.13;;
52104;SDS011;38103;42.776;23.112;2023-09-19T21:38:21;18.75;;;7.93;;
52104;SDS011;38103;42.776;23.112;2023-09-19T21:40:47;14.73;;;7.90;;
52104;SDS011;38103;42.776;23.112;2023-09-19T21:43:12;17.27;;;8.77;;
52104;SDS011;38103;42.776;23.112;2023-09-19T21:45:38;17.77;;;8.73;;
52104;SDS011;38103;42.776;23.112;2023-09-19T21:48:03;17.55;;;8.63;;
52104;SDS011;38103;42.776;23.112;2023-09-19T21:50:29;15.75;;;7.78;;
52104;SDS011;38103;42.776;23.112;2023-09-19T21:52:56;17.70;;;8.07;;
52104;SDS011;38103;42.776;23.112;2023-09-19T21:55:27;15.45;;;7.55;;
52104;SDS011;38103;42.776;23.112;2023-09-19T21:57:54;14.65;;;7.93;;
52104;SDS011;38103;42.776;23.112;2023-09-19T22:00:21;17.85;;;7.50;;
52104;SDS011;38103;42.776;23.112;2023-09-19T22:03:02;14.52;;;7.55;;
52104;SDS011;38103;42.776;23.112;2023-09-19T22:05:31;14.20;;;6.93;;
52104;SDS011;38103;42.776;23.112;2023-09-19T22:08:02;14.27;;;6.75;;
52104;SDS011;38103;42.776;23.112;2023-09-19T22:10:42;17.83;;;7.22;;
52104;SDS011;38103;42.776;23.112;2023-09-19T22:13:09;12.90;;;6.18;;
52104;SDS011;38103;42.776;23.112;2023-09-19T22:15:35;14.27;;;6.57;;
52104;SDS011;38103;42.776;23.112;2023-09-19T22:18:07;12.00;;;6.00;;
52104;SDS011;38103;42.776;23.112;2023-09-19T22:20:35;14.30;;;6.82;;
52104;SDS011;38103;42.776;23.112;2023-09-19T22:23:09;13.88;;;6.57;;
52104;SDS011;38103;42.776;23.112;2023-09-19T22:25:37;12.55;;;6.00;;
52104;SDS011;38103;42.776;23.112;2023-09-19T22:28:03;17.55;;;5.85;;
52104;SDS011;38103;42.776;23.112;2023-09-19T22:30:32;13.48;;;6.20;;
52104;SDS011;38103;42.776;23.112;2023-09-19T22:32:59;15.52;;;6.10;;
52104;SDS011;38103;42.776;23.112;2023-09-19T22:35:26;13.05;;;6.18;;
52104;SDS011;38103;42.776;23.112;2023-09-19T22:37:54;14.07;;;5.47;;
52104;SDS011;38103;42.776;23.112;2023-09-19T22:40:20;11.95;;;5.80;;
52104;SDS011;38103;42.776;23.112;2023-09-19T22:45:20;15.05;;;5.40;;